Time;durP1;ratioP1;P1;durP2;ratioP2;P2;SDS_P1;SDS_P2;PMS_P1;PMS_P2;Temp;Humidity;BMP_temperature;BMP_pressure;BME280_temperature;BME280_humidity;BME280_pressure;Samples;Min_cycle;Max_cycle;Signal;HPM_P1;HPM_P2
2022/06/26 00:01:24;;;;;;;;;;;20.20;99.90;;;;;;4403522;32;45587;-78
2022/06/26 00:03:51;;;;;;;;;;;20.20;99.90;;;;;;4404407;32;43513;-78
2022/06/26 00:06:18;;;;;;;;;;;20.20;99.90;;;;;;4404784;32;44218;-78
2022/06/26 00:08:47;;;;;;;;;;;20.20;99.90;;;;;;4404208;32;43497;-78
2022/06/26 00:11:14;;;;;;;;;;;20.20;99.90;;;;;;4405211;32;44121;-78
2022/06/26 00:13:41;;;;;;;;;;;20.20;99.90;;;;;;4404781;32;43508;-78
2022/06/26 00:16:08;;;;;;;;;;;20.20;99.90;;;;;;4404963;32;43370;-78
2022/06/26 00:18:36;;;;;;;;;;;20.20;99.90;;;;;;4405779;32;20004;-79
2022/06/26 00:21:03;;;;;;;;;;;20.20;99.90;;;;;;4403812;32;45019;-79
2022/06/26 00:23:30;;;;;;;;;;;20.10;99.90;;;;;;4403869;32;45871;-79
2022/06/26 00:25:57;;;;;;;;;;;20.10;99.90;;;;;;4404625;32;43229;-79
2022/06/26 00:28:25;;;;;;;;;;;20.10;99.90;;;;;;4403630;32;43439;-78
2022/06/26 00:30:52;;;;;;;;;;;20.10;99.90;;;;;;4403683;32;44585;-79
2022/06/26 00:33:19;;;;;;;;;;;20.10;99.90;;;;;;4403881;32;43807;-79
2022/06/26 00:35:46;;;;;;;;;;;20.10;99.90;;;;;;4404900;32;43834;-78
2022/06/26 00:38:13;;;;;;;;;;;20.10;99.90;;;;;;4403487;32;44246;-78
2022/06/26 00:40:42;;;;;;;;;;;20.10;99.90;;;;;;4404961;32;44787;-78
2022/06/26 00:43:09;;;;;;;;;;;20.10;99.90;;;;;;4404628;32;44090;-79
2022/06/26 00:45:36;;;;;;;;;;;20.10;99.90;;;;;;4404045;32;44221;-78
2022/06/26 00:48:03;;;;;;;;;;;20.10;99.90;;;;;;4404560;32;44228;-79
2022/06/26 00:50:32;;;;;;;;;;;20.10;99.90;;;;;;4403630;32;44186;-77
2022/06/26 00:52:59;;;;;;;;;;;20.00;99.90;;;;;;4403796;32;43188;-78
2022/06/26 00:55:26;;;;;;;;;;;20.00;99.90;;;;;;4403301;32;44298;-78
2022/06/26 00:57:53;;;;;;;;;;;20.00;99.90;;;;;;4406126;32;44483;-78
2022/06/26 01:00:20;;;;;;;;;;;20.00;99.90;;;;;;4406470;32;43192;-78
2022/06/26 01:02:47;;;;;;;;;;;20.00;99.90;;;;;;4407232;32;43142;-79
2022/06/26 01:05:15;;;;;;;;;;;20.00;99.90;;;;;;4406755;32;43055;-79
2022/06/26 01:07:42;;;;;;;;;;;19.90;99.90;;;;;;4407158;32;44352;-79
2022/06/26 01:10:09;;;;;;;;;;;19.90;99.90;;;;;;4407284;32;44415;-79
2022/06/26 01:12:37;;;;;;;;;;;19.90;99.90;;;;;;4406457;32;43303;-79
2022/06/26 01:15:07;;;;;;;;;;;19.90;99.90;;;;;;4407718;32;43475;-76
2022/06/26 01:17:35;;;;;;;;;;;19.90;99.90;;;;;;4406603;32;44849;-81
2022/06/26 01:20:04;;;;;;;;;;;19.90;99.90;;;;;;4407416;32;43239;-78
2022/06/26 01:22:31;;;;;;;;;;;19.80;99.90;;;;;;4407248;32;43312;-79
2022/06/26 01:24:58;;;;;;;;;;;19.80;99.90;;;;;;4406606;32;44080;-78
2022/06/26 01:27:25;;;;;;;;;;;19.80;99.90;;;;;;4406532;32;43854;-77
2022/06/26 01:29:52;;;;;;;;;;;19.80;99.90;;;;;;4406359;32;43464;-79
2022/06/26 01:32:19;;;;;;;;;;;19.70;99.90;;;;;;4407055;32;44179;-81
2022/06/26 01:34:46;;;;;;;;;;;19.70;99.90;;;;;;4406211;32;43912;-79
2022/06/26 01:37:13;;;;;;;;;;;19.70;99.90;;;;;;4407485;32;43185;-78
2022/06/26 01:39:40;;;;;;;;;;;19.60;99.90;;;;;;4407252;32;44209;-80
2022/06/26 01:42:07;;;;;;;;;;;19.60;99.90;;;;;;4406444;32;43422;-78
2022/06/26 01:44:34;;;;;;;;;;;19.60;99.90;;;;;;4407294;32;44688;-78
2022/06/26 01:47:01;;;;;;;;;;;19.60;99.90;;;;;;4407295;32;44110;-80
2022/06/26 01:49:29;;;;;;;;;;;19.50;99.90;;;;;;4407214;32;44092;-79
2022/06/26 01:51:56;;;;;;;;;;;19.50;99.90;;;;;;4405680;32;44350;-78
2022/06/26 01:54:23;;;;;;;;;;;19.50;99.90;;;;;;4406756;32;45032;-78
2022/06/26 01:56:50;;;;;;;;;;;19.50;99.90;;;;;;4406805;32;43794;-78
2022/06/26 01:59:17;;;;;;;;;;;19.50;99.90;;;;;;4406457;32;43411;-79
2022/06/26 02:01:44;;;;;;;;;;;19.40;99.90;;;;;;4406348;32;44030;-78
2022/06/26 02:04:16;;;;;;;;;;;19.40;99.90;;;;;;4405836;32;44168;-77
2022/06/26 02:06:43;;;;;;;;;;;19.40;99.90;;;;;;4406232;32;42509;-79
2022/06/26 02:13:36;;;;;;;;;;;19.40;99.90;;;;;;4407034;32;43209;-80
2022/06/26 02:14:43;;;;;;;;;;;19.40;99.90;;;;;;4406536;32;43830;-79
2022/06/26 02:17:10;;;;;;;;;;;19.40;99.90;;;;;;4406909;32;43304;-77
2022/06/26 02:19:37;;;;;;;;;;;19.30;99.90;;;;;;4407234;32;20401;-78
2022/06/26 02:22:04;;;;;;;;;;;19.40;99.90;;;;;;4406231;32;43179;-78
2022/06/26 02:24:31;;;;;;;;;;;19.40;99.90;;;;;;4405667;32;43519;-78
2022/06/26 02:26:58;;;;;;;;;;;19.30;99.90;;;;;;4405455;32;44263;-79
2022/06/26 02:29:27;;;;;;;;;;;19.40;99.90;;;;;;4406384;32;43856;-78
2022/06/26 02:31:54;;;;;;;;;;;19.30;99.90;;;;;;4405241;32;43235;-78
2022/06/26 02:34:21;;;;;;;;;;;19.30;99.90;;;;;;4405049;32;43242;-79
2022/06/26 02:36:48;;;;;;;;;;;19.30;99.90;;;;;;4406052;32;44320;-79
2022/06/26 02:39:15;;;;;;;;;;;19.30;99.90;;;;;;4405352;32;44172;-79
2022/06/26 02:41:44;;;;;;;;;;;19.30;99.90;;;;;;4405113;32;43542;-79
2022/06/26 02:44:12;;;;;;;;;;;19.30;99.90;;;;;;4406071;32;43966;-77
2022/06/26 02:46:39;;;;;;;;;;;19.30;99.90;;;;;;4406393;32;43477;-78
2022/06/26 02:49:08;;;;;;;;;;;19.40;99.90;;;;;;4406092;32;42946;-78
2022/06/26 02:51:35;;;;;;;;;;;19.40;99.90;;;;;;4406318;32;44952;-78
2022/06/26 02:54:02;;;;;;;;;;;19.30;99.90;;;;;;4406163;32;44186;-80
2022/06/26 02:56:29;;;;;;;;;;;19.30;99.90;;;;;;4405193;32;43288;-77
2022/06/26 02:58:56;;;;;;;;;;;19.30;99.90;;;;;;4404674;32;42746;-78
2022/06/26 03:01:23;;;;;;;;;;;19.30;99.90;;;;;;4404528;32;43911;-78
2022/06/26 03:03:50;;;;;;;;;;;19.20;99.90;;;;;;4406206;32;43248;-78
2022/06/26 03:06:17;;;;;;;;;;;19.30;99.90;;;;;;4405938;32;42989;-78
2022/06/26 03:08:44;;;;;;;;;;;19.20;99.90;;;;;;4404902;32;43163;-78
2022/06/26 03:11:12;;;;;;;;;;;19.20;99.90;;;;;;4404574;32;43277;-79
2022/06/26 03:13:39;;;;;;;;;;;19.20;99.90;;;;;;4405505;32;44004;-78
2022/06/26 03:16:06;;;;;;;;;;;19.10;99.90;;;;;;4404588;32;43996;-78
2022/06/26 03:18:33;;;;;;;;;;;19.10;99.90;;;;;;4404953;32;43948;-78
2022/06/26 03:21:00;;;;;;;;;;;19.10;99.90;;;;;;4405815;32;45135;-77
2022/06/26 03:26:13;;;;;;;;;;;19.10;99.90;;;;;;4405294;32;43246;-76
2022/06/26 03:28:40;;;;;;;;;;;19.00;99.90;;;;;;4405972;32;44219;-79
2022/06/26 03:31:07;;;;;;;;;;;19.10;99.90;;;;;;4404353;32;44205;-78
2022/06/26 03:33:34;;;;;;;;;;;19.10;99.90;;;;;;4405741;32;44095;-78
2022/06/26 03:36:01;;;;;;;;;;;19.00;99.90;;;;;;4405114;32;43896;-78
2022/06/26 03:38:28;;;;;;;;;;;19.00;99.90;;;;;;4405148;32;44279;-78
2022/06/26 03:40:55;;;;;;;;;;;19.00;99.90;;;;;;4405101;32;43465;-77
2022/06/26 03:43:22;;;;;;;;;;;19.00;99.90;;;;;;4403976;32;43199;-78
2022/06/26 03:45:49;;;;;;;;;;;19.00;99.90;;;;;;4404616;32;43873;-78
2022/06/26 03:48:17;;;;;;;;;;;18.90;99.90;;;;;;4404990;32;42966;-78
2022/06/26 03:50:44;;;;;;;;;;;18.90;99.90;;;;;;4405490;32;43848;-78
2022/06/26 03:53:11;;;;;;;;;;;18.90;99.90;;;;;;4404040;32;43464;-77
2022/06/26 03:55:39;;;;;;;;;;;18.90;99.90;;;;;;4405120;32;42280;-77
2022/06/26 03:58:06;;;;;;;;;;;18.90;99.90;;;;;;4404855;32;43965;-77
2022/06/26 04:00:34;;;;;;;;;;;18.90;99.90;;;;;;4404093;32;44200;-77
2022/06/26 04:03:03;;;;;;;;;;;18.90;99.90;;;;;;4404773;32;43035;-78
2022/06/26 04:05:31;;;;;;;;;;;18.90;99.90;;;;;;4404194;32;42567;-77
2022/06/26 04:07:58;;;;;;;;;;;18.90;99.90;;;;;;4403709;32;43182;-77
2022/06/26 04:10:25;;;;;;;;;;;18.90;99.90;;;;;;4405000;32;43270;-77
2022/06/26 04:12:52;;;;;;;;;;;18.90;99.90;;;;;;4405295;32;43232;-78
2022/06/26 04:15:19;;;;;;;;;;;18.90;99.90;;;;;;4404246;32;43213;-80
2022/06/26 04:17:47;;;;;;;;;;;18.90;99.90;;;;;;4404126;32;44048;-78
2022/06/26 04:20:15;;;;;;;;;;;18.90;99.90;;;;;;4405422;32;20004;-77
2022/06/26 04:22:42;;;;;;;;;;;18.80;99.90;;;;;;4404896;32;43549;-78
2022/06/26 04:25:11;;;;;;;;;;;18.80;99.90;;;;;;4404908;32;43600;-78
2022/06/26 04:27:40;;;;;;;;;;;18.80;99.90;;;;;;4404956;32;43802;-77
2022/06/26 04:30:07;;;;;;;;;;;18.80;99.90;;;;;;4405307;32;43036;-79
2022/06/26 04:32:35;;;;;;;;;;;18.80;99.90;;;;;;4408198;32;43172;-77
2022/06/26 04:35:05;;;;;;;;;;;18.80;99.90;;;;;;4408002;32;45270;-78
2022/06/26 04:37:32;;;;;;;;;;;18.80;99.90;;;;;;4407692;32;43071;-77
2022/06/26 04:39:59;;;;;;;;;;;18.80;99.90;;;;;;4408230;32;43906;-79
2022/06/26 04:42:27;;;;;;;;;;;18.80;99.90;;;;;;4408135;32;44254;-78
2022/06/26 04:44:55;;;;;;;;;;;18.80;99.90;;;;;;4406937;32;43897;-77
2022/06/26 04:47:22;;;;;;;;;;;18.70;99.90;;;;;;4406569;32;44265;-77
2022/06/26 04:49:49;;;;;;;;;;;18.70;99.90;;;;;;4407502;32;43208;-77
2022/06/26 04:52:16;;;;;;;;;;;18.70;99.90;;;;;;4406991;32;43901;-78
2022/06/26 04:54:43;;;;;;;;;;;18.70;99.90;;;;;;4406339;32;43270;-77
2022/06/26 04:57:10;;;;;;;;;;;18.70;99.90;;;;;;4406370;32;43825;-76
2022/06/26 04:59:38;;;;;;;;;;;18.70;99.90;;;;;;4407316;32;42942;-77
2022/06/26 05:02:05;;;;;;;;;;;18.70;99.90;;;;;;4406557;32;43244;-78
2022/06/26 05:04:32;;;;;;;;;;;18.70;99.90;;;;;;4406517;32;43196;-79
2022/06/26 05:07:02;;;;;;;;;;;18.70;99.90;;;;;;4406232;32;42965;-77
2022/06/26 05:09:35;;;;;;;;;;;18.70;99.90;;;;;;4407741;32;42377;-78
2022/06/26 05:12:04;;;;;;;;;;;18.70;99.90;;;;;;4406846;32;43848;-78
2022/06/26 05:14:31;;;;;;;;;;;18.70;99.90;;;;;;4407619;32;43975;-79
2022/06/26 05:16:59;;;;;;;;;;;18.70;99.90;;;;;;4407165;32;44220;-77
2022/06/26 05:19:40;;;;;;;;;;;18.70;99.90;;;;;;4406078;32;44667;-78
2022/06/26 05:22:10;;;;;;;;;;;18.70;99.90;;;;;;4407401;32;24519;-77
2022/06/26 05:24:43;;;;;;;;;;;18.70;99.90;;;;;;4407684;32;23647;-77
2022/06/26 05:27:11;;;;;;;;;;;18.70;99.90;;;;;;4407275;32;44806;-78
2022/06/26 05:29:50;;;;;;;;;;;18.70;99.90;;;;;;4406923;32;44022;-78
2022/06/26 05:32:17;;;;;;;;;;;18.70;99.90;;;;;;4407258;32;43927;-77
2022/06/26 05:34:46;;;;;;;;;;;18.60;99.90;;;;;;4408577;32;20038;-77
2022/06/26 05:37:23;;;;;;;;;;;18.70;99.90;;;;;;4407468;32;42572;-78
2022/06/26 05:39:54;;;;;;;;;;;18.70;99.90;;;;;;4406878;32;42788;-78
2022/06/26 05:42:22;;;;;;;;;;;18.70;99.90;;;;;;4405025;32;43242;-77
2022/06/26 05:44:51;;;;;;;;;;;18.60;99.90;;;;;;4407089;32;44059;-77
2022/06/26 05:47:28;;;;;;;;;;;18.60;99.90;;;;;;4408440;32;20033;-76
2022/06/26 05:50:06;;;;;;;;;;;18.60;99.90;;;;;;4406776;32;45048;-78
2022/06/26 05:52:34;;;;;;;;;;;18.60;99.90;;;;;;4407992;32;20462;-76
2022/06/26 05:55:01;;;;;;;;;;;18.60;99.90;;;;;;4406735;32;43967;-77
2022/06/26 05:57:29;;;;;;;;;;;18.60;99.90;;;;;;4408244;32;20053;-77
2022/06/26 05:59:56;;;;;;;;;;;18.60;99.90;;;;;;4405134;32;44386;-78
2022/06/26 06:02:27;;;;;;;;;;;18.60;99.90;;;;;;4405188;32;43371;-79
2022/06/26 06:04:58;;;;;;;;;;;18.60;99.90;;;;;;4407436;32;20000;-79
2022/06/26 06:07:25;;;;;;;;;;;18.60;99.90;;;;;;4405732;32;42943;-77
2022/06/26 06:09:52;;;;;;;;;;;18.60;99.90;;;;;;4406983;32;43876;-77
2022/06/26 06:12:20;;;;;;;;;;;18.60;99.90;;;;;;4405264;32;43629;-78
2022/06/26 06:14:47;;;;;;;;;;;18.70;99.90;;;;;;4406254;32;42790;-78
2022/06/26 06:20:08;;;;;;;;;;;18.60;99.90;;;;;;4407842;32;20469;-78
2022/06/26 06:22:35;;;;;;;;;;;18.60;99.90;;;;;;4405249;32;44022;-77
2022/06/26 06:25:03;;;;;;;;;;;18.60;99.90;;;;;;4406663;32;43504;-78
2022/06/26 06:27:38;;;;;;;;;;;18.60;99.90;;;;;;4406545;32;26523;-77
2022/06/26 06:30:11;;;;;;;;;;;18.70;99.90;;;;;;4405556;32;44215;-77
2022/06/26 06:32:46;;;;;;;;;;;18.60;99.90;;;;;;4406107;32;20026;-79
2022/06/26 06:35:23;;;;;;;;;;;18.60;99.90;;;;;;4405397;32;43237;-78
2022/06/26 06:37:52;;;;;;;;;;;18.60;99.90;;;;;;4407326;32;20006;-78
2022/06/26 06:40:19;;;;;;;;;;;18.60;99.90;;;;;;4406333;32;43908;-79
2022/06/26 06:42:46;;;;;;;;;;;18.60;99.90;;;;;;4405564;32;44015;-79
2022/06/26 06:45:19;;;;;;;;;;;18.60;99.90;;;;;;4406378;32;43874;-79
2022/06/26 06:47:46;;;;;;;;;;;18.60;99.90;;;;;;4406037;32;42432;-78
2022/06/26 06:50:28;;;;;;;;;;;18.60;99.90;;;;;;4404634;32;20012;-77
2022/06/26 06:52:56;;;;;;;;;;;18.60;99.90;;;;;;4406541;32;20061;-78
2022/06/26 06:55:25;;;;;;;;;;;18.50;99.90;;;;;;4404196;32;43820;-77
2022/06/26 06:57:53;;;;;;;;;;;18.50;99.90;;;;;;4406016;32;44248;-79
2022/06/26 07:00:20;;;;;;;;;;;18.50;99.90;;;;;;4405707;32;44664;-79
2022/06/26 07:02:47;;;;;;;;;;;18.60;99.90;;;;;;4405501;32;43339;-79
2022/06/26 07:05:17;;;;;;;;;;;18.50;99.90;;;;;;4404628;32;43202;-79
2022/06/26 07:07:44;;;;;;;;;;;18.50;99.90;;;;;;4405289;32;43191;-79
2022/06/26 07:10:11;;;;;;;;;;;18.50;99.90;;;;;;4404757;32;43941;-79
2022/06/26 07:12:38;;;;;;;;;;;18.50;99.90;;;;;;4406013;32;43304;-79
2022/06/26 07:15:05;;;;;;;;;;;18.50;99.90;;;;;;4404590;32;42816;-79
2022/06/26 07:17:32;;;;;;;;;;;18.50;99.90;;;;;;4405088;32;43459;-79
2022/06/26 07:20:00;;;;;;;;;;;18.50;99.90;;;;;;4405614;32;44049;-78
2022/06/26 07:22:27;;;;;;;;;;;18.50;99.90;;;;;;4404164;32;43470;-78
2022/06/26 07:24:54;;;;;;;;;;;18.50;99.90;;;;;;4404384;32;42864;-79
2022/06/26 07:27:22;;;;;;;;;;;18.50;99.90;;;;;;4404239;32;42840;-78
2022/06/26 07:29:49;;;;;;;;;;;18.50;99.90;;;;;;4405723;32;44011;-81
2022/06/26 07:32:16;;;;;;;;;;;18.50;99.90;;;;;;4405700;32;43604;-78
2022/06/26 07:34:44;;;;;;;;;;;18.50;99.90;;;;;;4404226;32;43135;-79
2022/06/26 07:37:12;;;;;;;;;;;18.50;99.90;;;;;;4404417;32;44497;-78
2022/06/26 07:39:41;;;;;;;;;;;18.50;99.90;;;;;;4404374;32;42876;-80
2022/06/26 07:42:09;;;;;;;;;;;18.50;99.90;;;;;;4405241;32;44193;-80
2022/06/26 07:44:36;;;;;;;;;;;18.50;99.90;;;;;;4404010;32;44103;-79
2022/06/26 07:47:03;;;;;;;;;;;18.50;99.90;;;;;;4405080;32;42973;-79
2022/06/26 07:49:30;;;;;;;;;;;18.50;99.90;;;;;;4405218;32;43465;-79
2022/06/26 07:52:03;;;;;;;;;;;18.40;99.90;;;;;;4404237;32;42642;-79
2022/06/26 07:54:30;;;;;;;;;;;18.50;99.90;;;;;;4404074;32;44182;-80
2022/06/26 07:56:57;;;;;;;;;;;18.40;99.90;;;;;;4404492;32;43193;-80
2022/06/26 07:59:24;;;;;;;;;;;18.40;99.90;;;;;;4405307;32;43439;-78
2022/06/26 08:01:51;;;;;;;;;;;18.40;99.90;;;;;;4404592;32;43385;-80
2022/06/26 08:04:18;;;;;;;;;;;18.40;99.90;;;;;;4404177;32;44551;-79
2022/06/26 08:06:52;;;;;;;;;;;18.40;99.90;;;;;;4403596;32;44027;-79
2022/06/26 08:09:20;;;;;;;;;;;18.40;99.90;;;;;;4403797;32;42864;-80
2022/06/26 08:11:47;;;;;;;;;;;18.40;99.90;;;;;;4404696;32;44641;-79
2022/06/26 08:14:14;;;;;;;;;;;18.40;99.90;;;;;;4404334;32;43954;-79
2022/06/26 08:16:41;;;;;;;;;;;18.40;99.90;;;;;;4404727;32;43954;-79
2022/06/26 08:19:08;;;;;;;;;;;18.40;99.90;;;;;;4404878;32;44176;-79
2022/06/26 08:24:23;;;;;;;;;;;18.40;99.90;;;;;;4405112;32;43905;-80
2022/06/26 08:26:52;;;;;;;;;;;18.40;99.90;;;;;;4404012;32;42899;-79
2022/06/26 08:29:19;;;;;;;;;;;18.40;99.90;;;;;;4404630;32;43266;-79
2022/06/26 08:31:46;;;;;;;;;;;18.50;99.90;;;;;;4405113;32;44225;-80
2022/06/26 08:34:13;;;;;;;;;;;18.50;99.90;;;;;;4404874;32;42636;-79
2022/06/26 08:36:41;;;;;;;;;;;18.40;99.90;;;;;;4403565;32;44215;-79
2022/06/26 08:39:08;;;;;;;;;;;18.40;99.90;;;;;;4405001;32;42652;-79
2022/06/26 08:41:39;;;;;;;;;;;18.40;99.90;;;;;;4405098;32;44962;-79
2022/06/26 08:44:07;;;;;;;;;;;18.40;99.90;;;;;;4403560;32;43462;-80
2022/06/26 08:46:42;;;;;;;;;;;18.40;99.90;;;;;;4404972;32;44848;-81
2022/06/26 08:49:15;;;;;;;;;;;18.40;99.90;;;;;;4404455;32;43442;-78
2022/06/26 08:51:43;;;;;;;;;;;18.40;99.90;;;;;;4405526;32;20467;-79
2022/06/26 08:54:14;;;;;;;;;;;18.50;99.90;;;;;;4403318;32;43753;-79
2022/06/26 08:56:43;;;;;;;;;;;18.40;99.90;;;;;;4404725;32;42300;-78
2022/06/26 08:59:10;;;;;;;;;;;18.40;99.90;;;;;;4404441;32;43175;-77
2022/06/26 09:01:38;;;;;;;;;;;18.40;99.90;;;;;;4404112;32;43456;-79
2022/06/26 09:04:07;;;;;;;;;;;18.40;99.90;;;;;;4404896;32;43461;-80
2022/06/26 09:06:34;;;;;;;;;;;18.40;99.90;;;;;;4404335;32;43022;-80
2022/06/26 09:09:15;;;;;;;;;;;18.40;99.90;;;;;;4403636;32;44278;-81
2022/06/26 09:11:43;;;;;;;;;;;18.40;99.90;;;;;;4403513;32;43321;-79
2022/06/26 09:14:11;;;;;;;;;;;18.40;99.90;;;;;;4404721;32;43762;-79
2022/06/26 09:16:40;;;;;;;;;;;18.40;99.90;;;;;;4404251;32;44577;-81
2022/06/26 09:19:16;;;;;;;;;;;18.40;99.90;;;;;;4407133;32;42493;-78
2022/06/26 09:21:47;;;;;;;;;;;18.40;99.90;;;;;;4407971;32;20090;-78
2022/06/26 09:24:15;;;;;;;;;;;18.40;99.90;;;;;;4406703;32;43474;-79
2022/06/26 09:27:21;;;;;;;;;;;18.40;99.90;;;;;;4407147;32;42364;-80
2022/06/26 09:29:52;;;;;;;;;;;18.40;99.90;;;;;;4381776;32;43054;-78
2022/06/26 09:32:21;;;;;;;;;;;18.40;99.90;;;;;;4407022;32;45158;-79
2022/06/26 09:34:50;;;;;;;;;;;18.40;99.90;;;;;;4405802;32;44251;-79
2022/06/26 09:37:18;;;;;;;;;;;18.40;99.90;;;;;;4407312;32;43020;-80
2022/06/26 09:40:05;;;;;;;;;;;18.40;99.90;;;;;;4406601;32;45129;-80
2022/06/26 09:42:33;;;;;;;;;;;18.40;99.90;;;;;;4405979;32;43482;-84
2022/06/26 09:45:01;;;;;;;;;;;18.40;99.90;;;;;;4406729;32;45029;-80
2022/06/26 09:47:31;;;;;;;;;;;18.40;99.90;;;;;;4407125;32;43944;-79
2022/06/26 09:49:59;;;;;;;;;;;18.30;99.90;;;;;;4406754;32;43844;-79
2022/06/26 09:52:29;;;;;;;;;;;18.30;99.90;;;;;;4407335;32;19992;-79
2022/06/26 09:54:57;;;;;;;;;;;18.30;99.90;;;;;;4405893;32;43481;-79
2022/06/26 09:57:26;;;;;;;;;;;18.40;99.90;;;;;;4406122;32;44728;-79
2022/06/26 09:59:54;;;;;;;;;;;18.40;99.90;;;;;;4405629;32;44291;-79
2022/06/26 10:07:53;;;;;;;;;;;18.40;99.90;;;;;;4406845;32;44515;-79
2022/06/26 10:10:22;;;;;;;;;;;18.30;99.90;;;;;;4406486;32;43189;-79
2022/06/26 10:12:52;;;;;;;;;;;18.30;99.90;;;;;;4406832;32;43244;-79
2022/06/26 10:15:21;;;;;;;;;;;18.30;99.90;;;;;;4407028;32;43322;-81
2022/06/26 10:18:04;;;;;;;;;;;18.40;99.90;;;;;;4406314;32;43662;-79
2022/06/26 10:20:31;;;;;;;;;;;18.30;99.90;;;;;;4405290;32;44027;-80
2022/06/26 10:22:58;;;;;;;;;;;18.40;99.90;;;;;;4406492;32;20033;-78
2022/06/26 10:25:27;;;;;;;;;;;18.40;99.90;;;;;;4405676;32;43924;-81
2022/06/26 10:27:54;;;;;;;;;;;18.40;99.90;;;;;;4405001;32;42405;-76
2022/06/26 10:30:23;;;;;;;;;;;18.40;99.90;;;;;;4406737;32;44871;-79
2022/06/26 10:33:10;;;;;;;;;;;18.40;99.90;;;;;;4406278;32;44005;-80
2022/06/26 10:35:38;;;;;;;;;;;18.40;99.90;;;;;;4406147;32;44121;-79
2022/06/26 10:38:17;;;;;;;;;;;18.40;99.90;;;;;;4405407;32;45228;-79
2022/06/26 10:43:38;;;;;;;;;;;18.40;99.90;;;;;;4406167;32;43964;-80
2022/06/26 10:46:05;;;;;;;;;;;18.40;99.90;;;;;;4406618;32;43603;-79
2022/06/26 10:48:32;;;;;;;;;;;18.40;99.90;;;;;;4405198;32;43256;-80
2022/06/26 10:51:03;;;;;;;;;;;18.40;99.90;;;;;;4405823;32;43236;-81
2022/06/26 10:53:39;;;;;;;;;;;18.40;99.90;;;;;;4405332;32;43313;-80
2022/06/26 10:56:07;;;;;;;;;;;18.50;99.90;;;;;;4405003;32;42548;-79
2022/06/26 10:58:36;;;;;;;;;;;18.40;99.90;;;;;;4406122;32;43941;-79
2022/06/26 11:01:07;;;;;;;;;;;18.40;99.90;;;;;;4405211;32;43242;-79
2022/06/26 11:03:36;;;;;;;;;;;18.40;99.90;;;;;;4404461;32;46088;-79
2022/06/26 11:06:07;;;;;;;;;;;18.50;99.90;;;;;;4405602;32;45135;-83
2022/06/26 11:08:39;;;;;;;;;;;18.50;99.90;;;;;;4404506;32;42806;-82
2022/06/26 11:11:07;;;;;;;;;;;18.50;99.90;;;;;;4404930;32;46033;-81
2022/06/26 11:13:36;;;;;;;;;;;18.50;99.90;;;;;;4404938;32;45929;-80
2022/06/26 11:16:03;;;;;;;;;;;18.50;99.90;;;;;;4404871;32;44956;-83
2022/06/26 11:18:35;;;;;;;;;;;18.50;99.90;;;;;;4405076;32;44113;-82
2022/06/26 11:21:02;;;;;;;;;;;18.50;99.90;;;;;;4406039;32;45869;-87
2022/06/26 11:23:32;;;;;;;;;;;18.50;99.90;;;;;;4406766;32;20337;-83
2022/06/26 11:26:04;;;;;;;;;;;18.50;99.90;;;;;;4405858;32;44983;-83
2022/06/26 11:28:35;;;;;;;;;;;18.50;99.90;;;;;;4405782;32;44819;-83
2022/06/26 11:31:03;;;;;;;;;;;18.50;99.90;;;;;;4404684;32;44192;-81
2022/06/26 11:33:31;;;;;;;;;;;18.50;99.90;;;;;;4405250;32;45047;-80
2022/06/26 11:36:06;;;;;;;;;;;18.60;99.90;;;;;;4405724;32;44067;-80
2022/06/26 11:38:34;;;;;;;;;;;18.50;99.90;;;;;;4404445;32;45212;-83
2022/06/26 11:41:02;;;;;;;;;;;18.50;99.90;;;;;;4403574;32;42606;-83
2022/06/26 11:43:29;;;;;;;;;;;18.50;99.90;;;;;;4404607;32;45667;-82
2022/06/26 11:45:57;;;;;;;;;;;18.50;99.90;;;;;;4405559;32;43577;-81
2022/06/26 11:48:24;;;;;;;;;;;18.50;99.90;;;;;;4404600;32;43742;-85
2022/06/26 11:50:54;;;;;;;;;;;18.50;99.90;;;;;;4404426;32;45646;-83
2022/06/26 11:53:23;;;;;;;;;;;18.50;99.90;;;;;;4404232;32;45698;-80
2022/06/26 11:55:53;;;;;;;;;;;18.50;99.90;;;;;;4404361;32;44107;-83
2022/06/26 11:58:24;;;;;;;;;;;18.50;99.90;;;;;;4403876;32;43851;-85
2022/06/26 12:01:09;;;;;;;;;;;18.50;99.90;;;;;;4404485;32;45332;-82
2022/06/26 12:03:48;;;;;;;;;;;18.60;99.90;;;;;;4404591;32;46105;-80
2022/06/26 12:06:28;;;;;;;;;;;18.60;99.90;;;;;;4404907;32;43256;-84
2022/06/26 12:08:59;;;;;;;;;;;18.60;99.90;;;;;;4404038;32;44561;-81
2022/06/26 12:11:29;;;;;;;;;;;18.60;99.90;;;;;;4404334;32;45321;-80
2022/06/26 12:13:56;;;;;;;;;;;18.60;99.90;;;;;;4405330;32;44783;-82
2022/06/26 12:16:23;;;;;;;;;;;18.60;99.90;;;;;;4404253;32;43143;-79
2022/06/26 12:18:50;;;;;;;;;;;18.60;99.90;;;;;;4403624;32;44167;-82
2022/06/26 12:21:17;;;;;;;;;;;18.60;99.90;;;;;;4404735;32;43290;-82
2022/06/26 12:23:45;;;;;;;;;;;18.60;99.90;;;;;;4403922;32;44275;-83
2022/06/26 12:26:16;;;;;;;;;;;18.60;99.90;;;;;;4405259;32;44027;-83
2022/06/26 12:28:43;;;;;;;;;;;18.60;99.90;;;;;;4404833;32;44827;-81
2022/06/26 12:31:11;;;;;;;;;;;18.60;99.90;;;;;;4403583;32;42528;-82
2022/06/26 12:33:44;;;;;;;;;;;18.60;99.90;;;;;;4405062;32;42511;-81
2022/06/26 12:36:12;;;;;;;;;;;18.60;99.90;;;;;;4403789;32;43053;-84
2022/06/26 12:38:39;;;;;;;;;;;18.70;99.90;;;;;;4403646;32;44193;-80
2022/06/26 12:41:16;;;;;;;;;;;18.70;99.90;;;;;;4403604;32;43075;-83
2022/06/26 12:43:47;;;;;;;;;;;18.70;99.90;;;;;;4404138;32;45589;-80
2022/06/26 12:46:23;;;;;;;;;;;18.70;99.90;;;;;;4405109;32;45722;-83
2022/06/26 12:48:51;;;;;;;;;;;18.70;99.90;;;;;;4403509;32;42372;-83
2022/06/26 12:51:18;;;;;;;;;;;18.70;99.90;;;;;;4404402;32;44134;-84
2022/06/26 12:53:45;;;;;;;;;;;18.70;99.90;;;;;;4406921;32;44189;-83
2022/06/26 12:56:12;;;;;;;;;;;18.80;99.90;;;;;;4406944;32;44429;-85
2022/06/26 12:58:40;;;;;;;;;;;18.80;99.90;;;;;;4407022;32;44333;-83
2022/06/26 13:01:08;;;;;;;;;;;18.80;99.90;;;;;;4406413;32;42838;-82
2022/06/26 13:03:35;;;;;;;;;;;18.80;99.90;;;;;;4406382;32;45097;-81
2022/06/26 13:06:04;;;;;;;;;;;18.80;99.90;;;;;;4406488;32;44217;-83
2022/06/26 13:08:31;;;;;;;;;;;18.80;99.90;;;;;;4407789;32;43827;-83
2022/06/26 13:11:23;;;;;;;;;;;18.80;99.90;;;;;;4407222;32;44192;-81
2022/06/26 13:13:45;;;;;;;;;;;18.80;99.90;;;;;;4407686;32;45931;-79
2022/06/26 13:16:32;;;;;;;;;;;18.80;99.90;;;;;;4407713;32;45566;-84
2022/06/26 13:18:59;;;;;;;;;;;18.80;99.90;;;;;;4406121;32;45053;-83
2022/06/26 13:21:26;;;;;;;;;;;18.80;99.90;;;;;;4406504;32;43781;-84
2022/06/26 13:23:53;;;;;;;;;;;18.80;99.90;;;;;;4406998;32;43800;-82
2022/06/26 13:26:21;;;;;;;;;;;18.80;99.90;;;;;;4405989;32;42557;-83
2022/06/26 13:28:48;;;;;;;;;;;18.80;99.90;;;;;;4405963;32;44622;-82
2022/06/26 13:31:15;;;;;;;;;;;18.80;99.90;;;;;;4406328;32;44028;-83
2022/06/26 13:33:42;;;;;;;;;;;18.80;99.90;;;;;;4406357;32;43261;-82
2022/06/26 13:36:09;;;;;;;;;;;18.90;99.90;;;;;;4405925;32;45779;-82
2022/06/26 13:38:36;;;;;;;;;;;18.90;99.90;;;;;;4405871;32;43574;-83
2022/06/26 13:41:04;;;;;;;;;;;18.90;99.90;;;;;;4405809;32;45255;-81
2022/06/26 13:43:36;;;;;;;;;;;18.90;99.90;;;;;;4406887;32;43506;-82
2022/06/26 13:46:03;;;;;;;;;;;18.90;99.90;;;;;;4407282;32;43977;-84
2022/06/26 13:48:32;;;;;;;;;;;18.90;99.90;;;;;;4405957;32;45675;-83
2022/06/26 13:50:59;;;;;;;;;;;18.90;99.90;;;;;;4405679;32;43477;-83
2022/06/26 13:53:26;;;;;;;;;;;18.90;99.90;;;;;;4406733;32;44001;-78
2022/06/26 13:55:53;;;;;;;;;;;18.90;99.90;;;;;;4406916;32;42466;-82
2022/06/26 13:58:20;;;;;;;;;;;18.90;99.90;;;;;;4405851;32;46088;-84
2022/06/26 14:00:47;;;;;;;;;;;18.90;99.90;;;;;;4407084;32;43223;-83
2022/06/26 14:03:14;;;;;;;;;;;18.90;99.90;;;;;;4405957;32;44259;-82
2022/06/26 14:05:42;;;;;;;;;;;18.90;99.90;;;;;;4405502;32;43949;-83
2022/06/26 14:08:09;;;;;;;;;;;19.00;99.90;;;;;;4405891;32;44079;-82
2022/06/26 14:10:36;;;;;;;;;;;18.90;99.90;;;;;;4405806;32;43446;-82
2022/06/26 14:13:04;;;;;;;;;;;19.00;99.90;;;;;;4406815;32;44298;-82
2022/06/26 14:15:31;;;;;;;;;;;18.90;99.90;;;;;;4406825;32;44111;-82
2022/06/26 14:17:58;;;;;;;;;;;19.00;99.90;;;;;;4406806;32;43590;-82
2022/06/26 14:20:25;;;;;;;;;;;19.00;99.90;;;;;;4405638;32;43423;-82
2022/06/26 14:25:57;;;;;;;;;;;19.00;99.90;;;;;;4406729;32;45754;-83
2022/06/26 14:28:32;;;;;;;;;;;19.00;99.90;;;;;;4406736;32;44055;-82
2022/06/26 14:31:00;;;;;;;;;;;19.00;99.90;;;;;;4406615;32;44173;-83
2022/06/26 14:33:28;;;;;;;;;;;19.00;99.90;;;;;;4404954;32;43930;-80
2022/06/26 14:35:57;;;;;;;;;;;19.00;99.90;;;;;;4405463;32;43196;-82
2022/06/26 14:38:25;;;;;;;;;;;19.00;99.90;;;;;;4404865;32;45138;-81
2022/06/26 14:40:57;;;;;;;;;;;19.00;99.90;;;;;;4405370;32;45821;-83
2022/06/26 14:43:25;;;;;;;;;;;19.00;99.90;;;;;;4406202;32;43872;-82
2022/06/26 14:45:52;;;;;;;;;;;19.00;99.90;;;;;;4406323;32;44239;-82
2022/06/26 14:48:19;;;;;;;;;;;19.00;99.90;;;;;;4405929;32;42879;-82